Bison, SD

4:57 PM MST on December 28, 2014 (GMT -0700)
Faith | Change Station
CLOSE
Current Station
Airport
Location: Faith,
Elevation: 2582 ft
Nearby Weather Stations

Elev 2582 ft 45.03 °N, 102.02 °W | Updated 1 hour ago

Overcast
Overcast
18 °F
Feels Like 4 °F
N
14
Wind Variable Wind from East
Gusts 17 mph

Today
High -- | Low -- °F
--% Chance of Precip.
Yesterday
High -- | Low -- °F
Precip. -- in
7:29 AM 4:13 PM
First Quarter, 52% visible
Pressure 30.22 in
Visibility -9999.0 miles
Clouds
Windchill 4 °F
Dew Point 15 °F
Humidity 88%
Rainfall 0.00 in
Snow Depth Not available.
UV Not available.
Pollen .10 out of 12
Air Quality Not available.
Flu Activity Not available.
METAR KD07 282256Z AUTO 09012KT M08/M09 A3007 RMK AO1 SLP233 T10781094

More Conditions Fewer Conditions

Pressure 30.22 in
Visibility -9999.0 miles
Clouds
Windchill 4 °F
Dew Point 15 °F
Humidity 88%
Rainfall 0.00 in
Snow Depth Not available.
UV Not available.
Pollen .10 out of 12
Air Quality Not available.
Flu Activity Not available.
METAR KD07 282256Z AUTO 09012KT M08/M09 A3007 RMK AO1 SLP233 T10781094

More Conditions Fewer Conditions

10-Day Weather Forecast

Almanac

Astronomy

Dec. 28, 2014 Rise Set
Actual Time
Civil Twilight
Nautical Twilight
Astronomical Twilight
Moon
Length of Visible Light
Length of Day
Tomorrow will be .
, % of the Moon is Illuminated

Today's Extremes

State Highs State Lows

Community

WunderPhotos

Upload Photos

1,781,460 photos uploaded!

WunderBlogs® & News

Nearby

Air Quality

  Air Quality AQ Index Pollutant
Not available.

Snow Depth

Station Depth Elevation

Earthquake Activity

City Distance Mag. Time & Date
Minimum magnitude displayed is 2.5.

Coastal Water Temperatures

Place Temperature

Nearby Weather Stations